• Join FlightAware (Why Join?)
  • Login
  • US Flag 
07:01PM EDT


 

Airport Tracker/Info


-or-


 

Live Flight TrackerFlight Track Log ✈ N1089D ✈ 22-Aug-2013 ✈ KPVD - KFRG

Flight Track Log - Related Links

Times and Time Zones

All times are in EDT time to prevent confusion due to time zone crossing. See the N1089D flight status page for this flight to view local times or setup timezone preferences in your user account.

Time Position Orientation Groundspeed Altitude Reporting Facility
EDT Latitude Longitude Course Direction KTS MPH feet Rate Location/Type
12:04AM 41.7189 -71.4583 252° West 100 115 6,000  Level Boston Center
12:05AM 41.7144 -71.4361 105° East 65 75 500 -2,400 Descending Boston Center
12:06AM 41.7019 -71.4475 214° Southwest 45 52 1,200 660 Climbing Boston Center
12:07AM 41.6856 -71.4589 207° Southwest 62 71 1,900 660 Climbing Boston Center
12:08AM 41.6647 -71.4675 197° South 67 77 2,600 540 Climbing Boston Center
12:09AM 41.6544 -71.6323 252° West  Level FlightAware Approximate
12:09AM 41.6608 -71.4953 259° West 67 77 3,000  Level Boston Center
12:10AM 41.6611 -71.5258 271° West 79 91 3,000 1,500 Level Boston Center
12:11AM 41.6614 -71.5564 271° West 84 97 6,000 360 Climbing Boston Center
12:12AM 41.6572 -71.5817 258° West 84 97 3,800  Descending Boston Center
12:13AM 41.6575 -71.6067 271° West 84 97 6,000 540 Climbing Boston Center
12:14AM 41.6556 -71.6317 264° West 84 97 4,900 -300 Descending Boston Center
12:15AM 41.6536 -71.6594 265° West 79 91 5,400 540 Climbing Boston Center
12:16AM 41.6392 -71.6817 229° Southwest 79 91 6,000 300 Climbing Boston Center
12:17AM 41.6247 -71.7069 233° Southwest 85 98 6,000  Level Boston Center
12:18AM 41.6061 -71.7350 228° Southwest 90 104 6,100  Climbing Boston Center
12:19AM 41.5897 -71.7656 234° Southwest 102 117 6,000 -60 Descending Boston Center
12:20AM 41.5711 -71.7936 228° Southwest 102 117 6,000  Level Boston Center
12:21AM 41.5547 -71.8214 232° Southwest 107 123 6,000  Level Boston Center
12:22AM 41.5361 -71.8522 231° Southwest 107 123 6,000  Level Boston Center
12:23AM 41.5175 -71.8800 228° Southwest 107 123 6,000  Level Boston Center
12:24AM 41.4989 -71.9081 228° Southwest 107 123 6,000 -60 Level Boston Center
12:25AM 41.4822 -71.9386 234° Southwest 107 123 5,900 -60 Descending Boston Center
12:26AM 41.4636 -71.9664 228° Southwest 107 123 5,900  Level Boston Center
12:27AM 41.4431 -71.9942 225° Southwest 107 123 6,000  Climbing Boston Center
12:28AM 41.4264 -72.0247 234° Southwest 112 129 5,900  Descending Boston Center
12:29AM 41.4097 -72.0525 231° Southwest 105 121 6,000  Climbing Boston Center
12:30AM 41.3911 -72.0831 231° Southwest 110 127 5,900  Descending Boston Center
12:32AM 41.3500 -72.1500 231° Southwest 107 123 6,000  Climbing New York TRACON
12:33AM 41.3167 -72.1833 217° Southwest 107 123 6,100  Climbing New York TRACON
12:34AM 41.3000 -72.2167 236° Southwest 102 117 6,100  Level New York TRACON
12:35AM 41.2833 -72.2333 217° Southwest 104 120 6,100  Level New York TRACON
12:36AM 41.2667 -72.2667 236° Southwest 104 120 6,100 -60 Level New York TRACON
12:37AM 41.2500 -72.3000 236° Southwest 101 116 6,000  Descending New York TRACON
12:38AM 41.2333 -72.3333 236° Southwest 105 121 6,100  Climbing New York TRACON
12:39AM 41.2167 -72.3500 217° Southwest 106 122 6,000  Descending New York TRACON
12:40AM 41.2000 -72.3833 236° Southwest 98 113 6,100  Climbing New York TRACON
12:41AM 41.1667 -72.4167 217° Southwest 105 121 6,100 -60 Level New York TRACON
12:42AM 41.1500 -72.4333 217° Southwest 98 113 6,000  Descending New York TRACON
12:43AM 41.1333 -72.4667 236° Southwest 99 114 6,100  Climbing New York TRACON
12:44AM 41.1167 -72.5000 236° Southwest 103 119 6,100  Level New York TRACON
12:45AM 41.1000 -72.5167 217° Southwest 107 123 6,100  Level New York TRACON
12:46AM 41.0833 -72.5500 236° Southwest 105 121 6,100 -60 Level New York TRACON
12:47AM 41.0667 -72.5833 236° Southwest 105 121 6,000  Descending New York TRACON
12:48AM 41.0500 -72.6000 217° Southwest 100 115 6,100  Climbing New York TRACON
12:49AM 41.0333 -72.6333 236° Southwest 103 119 6,100 -60 Level New York TRACON
12:50AM 41.0167 -72.6667 236° Southwest 104 120 6,000 -240 Descending New York TRACON
12:51AM 41.0000 -72.7000 236° Southwest 107 123 5,600 -480 Descending New York TRACON
12:52AM 40.9833 -72.7333 236° Southwest 94 108 5,000 -540 Descending New York TRACON
12:54AM 40.9500 -72.7500 201° Southwest 99 114 4,500 -480 Descending New York TRACON
12:55AM 40.9333 -72.7833 237° Southwest 96 110 4,100 -300 Descending New York TRACON
12:56AM 40.9167 -72.8000 217° Southwest 101 116 4,000 -60 Descending New York TRACON
12:57AM 40.9167 -72.8500 270° West 98 113 4,000  Level New York TRACON
12:58AM 40.9000 -72.8833 237° Southwest 96 110 4,100 -120 Climbing New York TRACON
12:59AM 40.9000 -72.9167 270° West 104 120 3,800 -420 Descending New York TRACON
01:00AM 40.8833 -72.9500 237° Southwest 103 119 3,300 -420 Descending New York TRACON
01:01AM 40.8833 -72.9833 270° West 94 108 3,000 -120 Descending New York TRACON
01:02AM 40.8667 -73.0167 237° Southwest 90 104 3,100  Climbing New York TRACON
01:03AM 40.8667 -73.0500 270° West 90 104 3,100 -60 Level New York TRACON
01:04AM 40.8500 -73.0833 237° Southwest 92 106 3,000 -60 Descending New York TRACON
01:06AM 40.8254 -73.1406 246° West  Level FlightAware Approximate
01:07AM 40.8333 -73.1667 246° West 93 107 3,000  Level New York TRACON
01:08AM 40.8143 -73.1916 249° West  Level FlightAware Approximate
01:10AM 40.7833 -73.2833 229° Southwest 87 100 2,000  Level New York TRACON
01:11AM 40.7833 -73.3167 270° West 100 115 2,000  Level New York TRACON
01:15AM 40.7211 -73.3934 229° Southwest  Level FlightAware Approximate
01:16AM 40.7167 -73.4000 229° Southwest  Level FlightAware Approximate